Time;durP1;ratioP1;P1;durP2;ratioP2;P2;SDS_P1;SDS_P2;PMS_P1;PMS_P2;Temp;Humidity;BMP_temperature;BMP_pressure;BME280_temperature;BME280_humidity;BME280_pressure;Samples;Min_cycle;Max_cycle;Signal;HPM_P1;HPM_P2
2022/10/19 00:00:42;;;;;;;5.30;1.07;;;;;;;10.01;100.00;101981.41;4948312;28;20031;-71
2022/10/19 00:03:08;;;;;;;2.43;0.83;;;;;;;9.97;100.00;101973.78;4952904;28;20147;-71
2022/10/19 00:05:33;;;;;;;8.43;1.40;;;;;;;9.96;100.00;101977.44;4956619;28;20034;-71
2022/10/19 00:08:00;;;;;;;6.70;1.13;;;;;;;9.97;100.00;101973.78;4947827;28;20035;-71
2022/10/19 00:10:26;;;;;;;5.15;0.73;;;;;;;10.02;100.00;101980.44;4946141;29;20393;-71
2022/10/19 00:12:51;;;;;;;5.20;1.38;;;;;;;10.05;100.00;101993.50;4950236;28;20122;-71
2022/10/19 00:15:16;;;;;;;7.10;1.73;;;;;;;9.98;100.00;101992.34;4946560;29;20851;-72
2022/10/19 00:17:42;;;;;;;7.80;1.00;;;;;;;10.06;100.00;101983.69;4947527;28;20039;-71
2022/10/19 00:20:08;;;;;;;6.20;1.20;;;;;;;10.00;100.00;101985.06;4955421;28;20037;-71
2022/10/19 00:22:33;;;;;;;7.05;1.10;;;;;;;10.00;100.00;101979.72;4958178;28;20027;-71
2022/10/19 00:24:59;;;;;;;10.37;1.57;;;;;;;10.07;100.00;101996.91;4950059;28;20369;-71
2022/10/19 00:27:24;;;;;;;4.33;0.90;;;;;;;10.05;100.00;101982.84;4953727;28;20471;-71
2022/10/19 00:29:49;;;;;;;5.47;1.40;;;;;;;10.04;100.00;101972.28;4945995;29;20035;-72
2022/10/19 00:32:15;;;;;;;8.87;1.10;;;;;;;10.03;100.00;101963.44;4949354;28;20477;-72
2022/10/19 00:34:40;;;;;;;7.50;1.30;;;;;;;10.03;100.00;101957.25;4952126;28;20063;-71
2022/10/19 00:37:05;;;;;;;8.47;2.10;;;;;;;10.04;100.00;101954.44;4949032;28;20473;-72
2022/10/19 00:39:31;;;;;;;11.03;1.30;;;;;;;10.03;100.00;101947.44;4952279;28;20110;-72
2022/10/19 00:41:56;;;;;;;10.43;1.53;;;;;;;9.98;100.00;101965.66;4959451;28;20075;-72
2022/10/19 00:44:27;;;;;;;8.87;1.10;;;;;;;9.97;100.00;101974.63;4946289;29;20086;-71
2022/10/19 00:47:01;;;;;;;7.72;1.00;;;;;;;10.04;100.00;101978.47;4959005;28;20114;-72
2022/10/19 00:49:34;;;;;;;13.45;1.50;;;;;;;10.02;100.00;101972.44;4947473;28;20114;-72
2022/10/19 00:52:12;;;;;;;12.55;1.70;;;;;;;10.01;100.00;101965.38;4949943;28;20067;-71
2022/10/19 00:54:39;;;;;;;8.23;1.20;;;;;;;10.10;100.00;101969.13;4948763;28;20034;-71
2022/10/19 00:57:06;;;;;;;2.92;0.98;;;;;;;10.08;100.00;101958.56;4946956;28;20031;-72
2022/10/19 00:59:32;;;;;;;9.75;1.10;;;;;;;10.08;100.00;101950.56;4953524;28;20579;-71
2022/10/19 01:01:59;;;;;;;14.73;1.83;;;;;;;10.02;100.00;101929.75;4931196;29;20047;-71
2022/10/19 01:04:26;;;;;;;8.40;1.50;;;;;;;10.07;100.00;101932.03;4959447;28;20039;-72
2022/10/19 01:06:52;;;;;;;;;;;;;;;10.08;100.00;101923.88;4957278;28;20050;-71
2022/10/19 01:09:18;;;;;;;4.15;1.02;;;;;;;10.12;100.00;101929.81;4955891;28;19929;-71
2022/10/19 01:12:02;;;;;;;9.25;0.93;;;;;;;10.08;100.00;101925.69;4949540;28;20027;-71
2022/10/19 01:14:49;;;;;;;7.22;1.40;;;;;;;10.09;100.00;101920.25;4936529;28;20915;-71
2022/10/19 01:17:33;;;;;;;8.40;1.23;;;;;;;10.08;100.00;101921.19;4953695;28;20400;-71
2022/10/19 01:20:28;;;;;;;3.58;1.10;;;;;;;10.10;100.00;101921.91;4949493;29;20501;-71
2022/10/19 01:23:34;;;;;;;3.13;0.80;;;;;;;10.12;100.00;101913.78;4949326;29;20055;-71
2022/10/19 01:26:05;;;;;;;14.10;2.28;;;;;;;10.11;100.00;101915.63;4950405;28;20034;-71
2022/10/19 01:29:01;;;;;;;9.60;1.67;;;;;;;10.03;100.00;101910.09;4952524;28;20053;-71
2022/10/19 01:31:39;;;;;;;6.68;1.58;;;;;;;10.04;100.00;101911.75;4949351;28;20031;-71
2022/10/19 01:34:16;;;;;;;10.40;1.85;;;;;;;10.03;100.00;101909.25;4949292;29;20110;-71
2022/10/19 01:37:04;;;;;;;9.80;1.45;;;;;;;10.03;100.00;101906.56;4949788;28;20031;-72
2022/10/19 01:39:54;;;;;;;10.80;1.38;;;;;;;10.08;100.00;101899.84;4950608;28;20039;-72
2022/10/19 01:42:28;;;;;;;6.10;1.08;;;;;;;10.07;100.00;101889.34;4957899;28;20027;-72
2022/10/19 01:45:03;;;;;;;11.23;1.52;;;;;;;10.14;100.00;101895.84;4958303;28;20094;-71
2022/10/19 01:47:42;;;;;;;11.60;1.48;;;;;;;10.23;100.00;101888.84;4959477;28;20065;-71
2022/10/19 01:50:23;;;;;;;13.73;2.67;;;;;;;10.18;100.00;101875.88;4953523;28;20039;-72
2022/10/19 01:52:50;;;;;;;5.03;0.90;;;;;;;10.19;100.00;101871.44;4961849;28;20066;-71
2022/10/19 01:55:17;;;;;;;12.20;1.83;;;;;;;10.15;100.00;101871.66;4954112;28;20027;-72
2022/10/19 01:57:47;;;;;;;7.00;1.35;;;;;;;10.19;100.00;101876.75;4956579;28;20126;-71
2022/10/19 02:00:15;;;;;;;4.40;0.73;;;;;;;10.18;100.00;101877.72;4947886;28;20107;-71
2022/10/19 02:02:47;;;;;;;8.23;1.00;;;;;;;10.09;100.00;101877.56;4956507;28;20832;-71
2022/10/19 02:05:15;;;;;;;16.98;2.33;;;;;;;10.13;100.00;101883.44;4951686;28;20146;-71
2022/10/19 02:07:48;;;;;;;12.90;1.33;;;;;;;10.20;100.00;101889.13;4949758;28;20023;-71
2022/10/19 02:10:13;;;;;;;6.70;1.33;;;;;;;10.17;100.00;101892.06;4948618;29;20090;-71
2022/10/19 02:12:40;;;;;;;6.70;1.50;;;;;;;10.18;100.00;101891.06;4952431;28;20026;-71
2022/10/19 02:15:13;;;;;;;7.18;1.60;;;;;;;10.14;100.00;101880.66;4957577;28;20551;-71
2022/10/19 02:17:44;;;;;;;14.13;2.83;;;;;;;10.13;100.00;101876.28;4962425;28;20073;-72
2022/10/19 02:20:11;;;;;;;8.15;1.80;;;;;;;10.04;100.00;101877.06;4949722;28;20087;-72
2022/10/19 02:22:36;;;;;;;12.82;1.67;;;;;;;10.07;100.00;101882.16;4949526;28;20023;-72
2022/10/19 02:25:02;;;;;;;7.83;1.80;;;;;;;10.07;100.00;101878.66;4954414;28;20511;-71
2022/10/19 02:27:28;;;;;;;7.03;1.42;;;;;;;10.09;100.00;101880.22;4957572;28;20031;-71
2022/10/19 02:29:54;;;;;;;9.07;1.30;;;;;;;10.11;100.00;101890.75;4965222;28;20408;-71
2022/10/19 02:32:19;;;;;;;9.63;0.88;;;;;;;10.04;100.00;101887.75;4959922;28;20025;-71
2022/10/19 02:34:45;;;;;;;6.32;1.55;;;;;;;10.04;100.00;101897.59;4947755;28;20050;-71
2022/10/19 02:37:10;;;;;;;13.47;1.77;;;;;;;9.99;100.00;101897.97;4952327;28;20027;-71
2022/10/19 02:39:37;;;;;;;4.97;1.20;;;;;;;9.86;100.00;101898.19;4948208;29;20038;-71
2022/10/19 02:42:06;;;;;;;7.00;1.17;;;;;;;9.78;100.00;101915.78;4960107;28;20072;-71
2022/10/19 02:44:41;;;;;;;12.48;2.08;;;;;;;9.67;100.00;101930.88;4952258;28;20046;-71
2022/10/19 02:47:11;;;;;;;9.55;1.38;;;;;;;9.69;100.00;101944.94;4953949;28;20042;-71
2022/10/19 02:49:37;;;;;;;9.93;1.38;;;;;;;9.67;100.00;101946.88;4947761;29;20053;-72
2022/10/19 02:52:08;;;;;;;7.55;1.42;;;;;;;9.62;100.00;101953.56;4953882;28;20877;-72
2022/10/19 02:54:34;;;;;;;9.98;1.42;;;;;;;9.57;100.00;101963.75;4953668;28;20065;-72
2022/10/19 02:56:59;;;;;;;6.95;2.30;;;;;;;9.46;100.00;101972.66;4948428;28;20477;-72
2022/10/19 02:59:25;;;;;;;8.52;1.23;;;;;;;9.40;100.00;101976.66;4956973;28;20524;-72
2022/10/19 03:01:51;;;;;;;11.40;2.53;;;;;;;9.33;100.00;101979.94;4949163;28;20082;-72
2022/10/19 03:04:16;;;;;;;10.52;2.30;;;;;;;9.43;100.00;102000.38;4950040;28;20054;-72
2022/10/19 03:06:42;;;;;;;15.80;2.40;;;;;;;9.37;100.00;101992.91;4953156;28;20033;-72
2022/10/19 03:09:08;;;;;;;8.03;1.67;;;;;;;9.27;100.00;101987.47;4950869;28;20035;-71
2022/10/19 03:11:33;;;;;;;10.07;1.92;;;;;;;9.19;100.00;101989.88;4947126;28;20106;-71
2022/10/19 03:13:58;;;;;;;11.23;1.40;;;;;;;9.18;100.00;102009.53;4931371;29;20122;-72
2022/10/19 03:16:24;;;;;;;11.73;2.17;;;;;;;9.21;100.00;102017.25;4953648;28;20061;-71
2022/10/19 03:18:50;;;;;;;24.33;2.37;;;;;;;9.08;100.00;102009.41;4954998;28;20094;-72
2022/10/19 03:21:15;;;;;;;9.18;1.30;;;;;;;9.02;100.00;102017.88;4950957;28;20030;-71
2022/10/19 03:23:41;;;;;;;4.67;1.60;;;;;;;8.97;100.00;102032.53;4955062;28;20141;-71
2022/10/19 03:26:07;;;;;;;12.07;2.30;;;;;;;9.04;100.00;102055.91;4952622;28;20281;-71
2022/10/19 03:28:33;;;;;;;11.50;1.15;;;;;;;9.08;100.00;102076.03;4943759;29;20062;-71
2022/10/19 03:30:59;;;;;;;15.35;2.30;;;;;;;9.16;100.00;102086.06;4953937;28;20089;-71
2022/10/19 03:33:25;;;;;;;13.50;2.65;;;;;;;9.22;100.00;102092.72;4957262;28;20023;-71
2022/10/19 03:36:13;;;;;;;11.07;3.33;;;;;;;9.22;100.00;102077.56;4946572;29;20397;-72
2022/10/19 03:38:39;;;;;;;13.32;2.22;;;;;;;9.24;100.00;102083.63;4953594;28;20244;-72
2022/10/19 03:41:05;;;;;;;12.18;1.70;;;;;;;9.32;100.00;102076.84;4946830;28;20529;-72
2022/10/19 03:43:31;;;;;;;6.00;1.20;;;;;;;9.29;100.00;102067.28;4952637;28;20031;-72
2022/10/19 03:45:56;;;;;;;10.67;1.73;;;;;;;9.23;100.00;102060.63;4955140;28;20927;-72
2022/10/19 03:48:21;;;;;;;8.70;1.17;;;;;;;9.12;100.00;102047.31;4953789;28;20734;-72
2022/10/19 03:50:47;;;;;;;12.73;1.93;;;;;;;9.09;100.00;102074.19;4960120;28;20109;-72
2022/10/19 03:53:13;;;;;;;10.80;1.83;;;;;;;9.08;100.00;102081.34;4957045;28;20038;-72
2022/10/19 03:55:38;;;;;;;12.50;2.55;;;;;;;9.05;100.00;102088.72;4954546;28;20031;-72
2022/10/19 03:58:04;;;;;;;14.37;2.70;;;;;;;9.09;100.00;102087.50;4946590;29;20027;-72
2022/10/19 04:00:29;;;;;;;11.30;1.77;;;;;;;9.13;100.00;102096.97;4950756;28;20118;-72
2022/10/19 04:02:54;;;;;;;7.40;2.07;;;;;;;9.14;100.00;102088.00;4950327;28;20157;-72
2022/10/19 04:05:20;;;;;;;9.53;2.00;;;;;;;9.19;100.00;102091.13;4953466;28;20033;-72
2022/10/19 04:07:45;;;;;;;12.50;2.30;;;;;;;9.22;100.00;102084.72;4953654;28;20034;-72
2022/10/19 04:10:10;;;;;;;13.70;2.43;;;;;;;9.18;100.00;102062.81;4954260;28;20043;-72
2022/10/19 04:12:36;;;;;;;17.50;2.47;;;;;;;9.22;100.00;102056.25;4956397;28;20045;-72
2022/10/19 04:15:01;;;;;;;14.77;1.77;;;;;;;9.26;100.00;102056.88;4948804;28;20022;-72
2022/10/19 04:17:26;;;;;;;9.27;2.07;;;;;;;9.27;100.00;102061.22;4951503;28;20041;-72
2022/10/19 04:19:52;;;;;;;12.27;2.07;;;;;;;9.26;100.00;102055.03;4953910;28;20114;-72
2022/10/19 04:22:17;;;;;;;14.30;1.67;;;;;;;9.24;100.00;102066.78;4953511;28;20031;-71
2022/10/19 04:24:42;;;;;;;12.87;1.40;;;;;;;9.24;100.00;102069.47;4953872;28;20046;-72
2022/10/19 04:27:08;;;;;;;10.97;2.97;;;;;;;9.24;100.00;102078.28;4950025;28;20053;-72
2022/10/19 04:29:33;;;;;;;14.40;2.47;;;;;;;9.22;100.00;102080.22;4951293;28;20516;-72
2022/10/19 04:31:59;;;;;;;11.63;2.27;;;;;;;9.25;100.00;102080.00;4952846;28;20452;-72
2022/10/19 04:34:24;;;;;;;12.30;3.00;;;;;;;9.30;100.00;102088.47;4955852;28;20034;-72
2022/10/19 04:36:49;;;;;;;15.50;1.87;;;;;;;9.23;100.00;102070.44;4951174;28;20489;-72
2022/10/19 04:39:15;;;;;;;11.27;1.60;;;;;;;9.26;100.00;102070.19;4951738;28;20018;-72
2022/10/19 04:41:40;;;;;;;11.50;2.60;;;;;;;9.30;100.00;102072.50;4940782;28;20215;-72
2022/10/19 04:44:06;;;;;;;10.70;1.40;;;;;;;9.25;100.00;102072.00;4953846;28;20027;-72
2022/10/19 04:46:31;;;;;;;4.70;1.40;;;;;;;9.21;100.00;102078.56;4951896;28;20062;-72
2022/10/19 04:48:58;;;;;;;13.30;2.67;;;;;;;9.17;100.00;102087.75;4952552;28;20532;-72
2022/10/19 04:51:24;;;;;;;10.98;3.42;;;;;;;9.06;100.00;102085.06;4949360;28;20035;-72
2022/10/19 04:53:50;;;;;;;18.60;2.25;;;;;;;9.01;100.00;102108.56;4956650;28;20042;-72
2022/10/19 04:56:20;;;;;;;9.53;2.40;;;;;;;8.91;100.00;102107.59;4954128;28;20035;-71
2022/10/19 04:58:46;;;;;;;15.60;3.33;;;;;;;8.84;100.00;102117.84;4940871;28;20036;-72
2022/10/19 05:01:18;;;;;;;16.83;2.05;;;;;;;8.86;100.00;102124.75;4955210;28;20029;-72
2022/10/19 05:03:44;;;;;;;16.38;2.72;;;;;;;8.76;100.00;102137.09;4952180;28;20086;-72
2022/10/19 05:06:11;;;;;;;14.77;2.05;;;;;;;8.81;100.00;102145.56;4953332;28;20543;-71
2022/10/19 05:08:37;;;;;;;10.65;2.25;;;;;;;8.83;100.00;102154.31;4950844;28;20587;-72
2022/10/19 05:11:11;;;;;;;9.27;1.92;;;;;;;8.84;100.00;102166.63;4952233;28;20030;-72
2022/10/19 05:13:37;;;;;;;15.45;2.42;;;;;;;8.82;100.00;102165.91;4938818;29;20250;-72
2022/10/19 05:16:04;;;;;;;15.25;2.35;;;;;;;8.77;100.00;102161.91;4940863;28;20038;-72
2022/10/19 05:18:30;;;;;;;16.75;2.65;;;;;;;8.69;100.00;102159.81;4950838;28;20062;-72
2022/10/19 05:21:10;;;;;;;22.57;4.03;;;;;;;8.66;100.00;102168.03;4924256;28;20512;-72
2022/10/19 05:23:36;;;;;;;15.85;3.33;;;;;;;8.63;100.00;102178.91;4948989;28;20606;-72
2022/10/19 05:26:14;;;;;;;23.67;3.72;;;;;;;8.54;100.00;102190.25;4940607;28;20832;-72
2022/10/19 05:28:40;;;;;;;12.57;2.30;;;;;;;8.57;100.00;102198.88;4936497;29;20039;-72
2022/10/19 05:31:16;;;;;;;14.00;2.45;;;;;;;8.62;100.00;102198.53;4941188;28;20031;-72
2022/10/19 05:33:42;;;;;;;13.57;3.03;;;;;;;8.70;100.00;102205.94;4950600;28;20508;-72
2022/10/19 05:36:17;;;;;;;15.13;2.22;;;;;;;8.72;100.00;102204.00;4954499;28;20510;-72
2022/10/19 05:38:44;;;;;;;21.27;3.05;;;;;;;8.77;100.00;102201.84;4951514;28;20035;-72
2022/10/19 05:41:10;;;;;;;11.30;2.35;;;;;;;8.80;100.00;102201.59;4938259;28;20051;-72
2022/10/19 05:43:35;;;;;;;20.15;2.47;;;;;;;8.88;100.00;102208.06;4954658;28;20035;-72
2022/10/19 05:46:03;;;;;;;17.30;4.00;;;;;;;8.86;100.00;102201.16;4952121;28;20027;-72
2022/10/19 05:48:31;;;;;;;19.35;3.72;;;;;;;8.87;100.00;102203.72;4954352;28;20061;-72
2022/10/19 05:50:57;;;;;;;16.83;2.95;;;;;;;8.91;100.00;102199.00;4953789;28;20019;-71
2022/10/19 05:53:22;;;;;;;14.80;2.57;;;;;;;8.80;100.00;102191.81;4957689;28;20448;-71
2022/10/19 05:55:47;;;;;;;18.67;2.40;;;;;;;8.72;100.00;102178.22;4955947;28;20483;-72
2022/10/19 05:58:13;;;;;;;17.20;3.03;;;;;;;8.74;100.00;102186.09;4955419;28;20046;-73
2022/10/19 06:00:38;;;;;;;25.10;4.00;;;;;;;8.69;100.00;102196.25;4948424;28;20041;-72
2022/10/19 06:03:03;;;;;;;13.80;2.53;;;;;;;8.69;100.00;102190.94;4955736;28;20489;-72
2022/10/19 06:05:29;;;;;;;19.70;3.77;;;;;;;8.69;100.00;102193.59;4957244;28;20404;-72
2022/10/19 06:07:54;;;;;;;15.13;3.07;;;;;;;8.74;100.00;102204.75;4951237;28;20444;-72
2022/10/19 06:10:20;;;;;;;18.63;3.97;;;;;;;8.70;100.00;102204.13;4954185;28;20031;-72
2022/10/19 06:12:46;;;;;;;17.25;2.78;;;;;;;8.75;100.00;102209.94;4947862;28;20039;-72
2022/10/19 06:15:11;;;;;;;13.55;2.03;;;;;;;8.75;100.00;102212.59;4949053;28;20022;-72
2022/10/19 06:17:36;;;;;;;24.52;2.75;;;;;;;8.78;100.00;102216.84;4953450;28;20043;-72
2022/10/19 06:20:02;;;;;;;17.47;3.00;;;;;;;8.82;100.00;102221.81;4951227;28;20113;-72
2022/10/19 06:22:28;;;;;;;14.77;2.65;;;;;;;8.77;100.00;102215.16;4948564;28;20130;-72
2022/10/19 06:24:54;;;;;;;17.85;3.20;;;;;;;8.74;100.00;102220.72;4949857;28;20027;-72
2022/10/19 06:27:20;;;;;;;15.27;3.10;;;;;;;8.91;100.00;102219.44;4952370;28;20501;-72
2022/10/19 06:29:45;;;;;;;20.30;2.87;;;;;;;9.03;100.00;102226.50;4949990;28;20061;-72
2022/10/19 06:32:10;;;;;;;23.23;4.63;;;;;;;9.13;100.00;102232.84;4948684;28;20540;-72
2022/10/19 06:34:36;;;;;;;21.40;2.90;;;;;;;9.21;100.00;102224.28;4952373;28;20097;-72
2022/10/19 06:37:01;;;;;;;23.87;3.13;;;;;;;9.38;100.00;102233.63;4949531;28;20035;-72
2022/10/19 06:39:26;;;;;;;18.27;4.43;;;;;;;9.61;100.00;102240.69;4962030;28;20835;-72
2022/10/19 06:41:51;;;;;;;19.43;3.20;;;;;;;9.89;100.00;102230.53;4952546;28;20392;-71
2022/10/19 06:44:17;;;;;;;7.83;2.43;;;;;;;10.03;100.00;102214.25;4955135;28;20106;-72
2022/10/19 06:46:43;;;;;;;15.32;2.67;;;;;;;10.25;100.00;102201.84;4953623;28;20154;-72
2022/10/19 06:49:11;;;;;;;20.30;2.60;;;;;;;10.24;100.00;102182.31;4952144;28;20130;-72
2022/10/19 06:51:37;;;;;;;11.98;2.85;;;;;;;10.32;100.00;102157.69;4954894;28;20177;-72
2022/10/19 06:54:02;;;;;;;11.53;2.60;;;;;;;10.50;100.00;102160.66;4960639;28;20102;-72
2022/10/19 06:56:28;;;;;;;22.90;2.97;;;;;;;10.57;100.00;102143.16;4947380;29;20050;-72
2022/10/19 06:58:54;;;;;;;16.77;4.03;;;;;;;10.92;100.00;102147.34;4951340;28;20031;-72
2022/10/19 07:01:20;;;;;;;21.02;3.45;;;;;;;11.23;100.00;102148.22;4951399;28;20515;-72
2022/10/19 07:03:45;;;;;;;16.55;2.30;;;;;;;11.08;100.00;102107.66;4956055;28;20027;-73
2022/10/19 07:06:12;;;;;;;16.07;2.73;;;;;;;11.56;100.00;102108.81;4948766;28;20042;-72
2022/10/19 07:08:39;;;;;;;16.98;2.40;;;;;;;11.80;100.00;102079.91;4949874;28;20081;-72
2022/10/19 07:11:09;;;;;;;18.30;2.42;;;;;;;11.82;100.00;102018.19;4948642;28;20504;-72
2022/10/19 07:13:35;;;;;;;19.58;2.15;;;;;;;12.35;100.00;101995.53;4947380;29;20055;-72
2022/10/19 07:16:05;;;;;;;9.73;2.17;;;;;;;12.65;100.00;101962.34;4947398;29;20042;-73
2022/10/19 07:18:33;;;;;;;14.48;2.72;;;;;;;12.80;100.00;101895.69;4947257;28;20122;-72
2022/10/19 07:21:01;;;;;;;6.20;1.67;;;;;;;13.19;100.00;101847.19;4948308;28;20433;-72
2022/10/19 07:23:28;;;;;;;8.73;2.38;;;;;;;13.19;100.00;101745.31;4957016;28;20031;-73
2022/10/19 07:25:59;;;;;;;11.32;2.60;;;;;;;13.08;100.00;101669.47;4931699;28;20591;-73
2022/10/19 07:28:25;;;;;;;9.43;3.25;;;;;;;13.32;100.00;101654.56;4957731;28;20099;-72
2022/10/19 07:30:50;;;;;;;10.30;2.47;;;;;;;13.69;100.00;101624.75;4954900;28;20970;-72
2022/10/19 07:33:16;;;;;;;9.07;2.17;;;;;;;13.95;100.00;101572.84;4950377;28;20279;-73
2022/10/19 07:35:41;;;;;;;8.90;1.87;;;;;;;13.63;100.00;101463.59;4953667;28;20042;-73
2022/10/19 07:38:07;;;;;;;11.93;1.50;;;;;;;13.66;100.00;101382.75;4953901;28;20040;-73
2022/10/19 07:40:32;;;;;;;14.20;2.72;;;;;;;14.68;100.00;101475.34;4946787;28;20031;-73
2022/10/19 07:42:58;;;;;;;6.77;1.90;;;;;;;14.67;100.00;101245.22;4952359;28;20082;-72
2022/10/19 07:45:23;;;;;;;9.77;1.57;;;;;;;14.85;100.00;101190.34;4954534;28;20109;-73
2022/10/19 07:47:48;;;;;;;11.17;2.17;;;;;;;15.22;100.00;101185.97;4953745;28;20069;-73
2022/10/19 07:50:14;;;;;;;7.77;1.67;;;;;;;15.62;100.00;101118.31;4948848;28;20078;-72
2022/10/19 07:52:39;;;;;;;8.70;2.03;;;;;;;15.63;100.00;100942.34;4954782;28;20671;-73
2022/10/19 07:55:05;;;;;;;6.93;2.43;;;;;;;15.55;100.00;100826.75;4952009;28;20480;-73
2022/10/19 07:57:31;;;;;;;3.15;1.02;;;;;;;16.22;100.00;100873.09;4952273;28;20121;-72
2022/10/19 07:59:56;;;;;;;7.13;1.80;;;;;;;16.61;100.00;100788.94;4953370;28;20082;-73
2022/10/19 08:02:21;;;;;;;4.20;1.10;;;;;;;16.44;100.00;100659.13;4954185;28;20039;-73
2022/10/19 08:04:47;;;;;;;6.17;1.47;;;;;;;16.02;100.00;100644.06;4971144;28;20038;-72
2022/10/19 08:07:12;;;;;;;7.33;1.10;;;;;;;16.57;98.51;100696.03;4955733;28;20453;-72
2022/10/19 08:09:37;;;;;;;4.83;1.23;;;;;;;16.77;97.40;100703.38;4956069;28;20034;-73
2022/10/19 08:12:04;;;;;;;1.60;0.97;;;;;;;16.77;93.12;100452.66;4954093;28;20027;-73
2022/10/19 08:14:30;;;;;;;5.55;1.10;;;;;;;17.41;91.71;100567.06;4952779;28;20523;-73
2022/10/19 08:16:56;;;;;;;5.30;1.10;;;;;;;17.45;87.92;100363.19;4953586;28;20046;-73
2022/10/19 08:19:22;;;;;;;4.63;0.80;;;;;;;17.72;86.10;100363.84;4954195;28;20443;-73
2022/10/19 08:21:48;;;;;;;1.05;0.70;;;;;;;16.95;85.85;100217.41;4952679;28;20556;-73
2022/10/19 08:24:16;;;;;;;2.58;0.82;;;;;;;17.25;86.25;100391.09;4949723;28;20113;-73
2022/10/19 08:26:42;;;;;;;4.55;1.02;;;;;;;17.40;85.76;100431.31;4954048;28;20097;-73
2022/10/19 08:29:14;;;;;;;1.88;0.68;;;;;;;18.12;82.38;100337.38;4958497;28;20403;-72
2022/10/19 08:31:41;;;;;;;1.80;0.90;;;;;;;18.24;81.74;100350.13;4953099;28;20039;-73
2022/10/19 08:34:07;;;;;;;2.13;0.88;;;;;;;17.96;80.58;100202.06;4954264;28;20307;-73
2022/10/19 08:36:34;;;;;;;4.97;0.80;;;;;;;17.89;81.17;100326.38;4952142;28;20047;-73
2022/10/19 08:39:01;;;;;;;3.95;1.25;;;;;;;18.09;79.77;100245.13;4954086;28;20069;-73
2022/10/19 08:41:33;;;;;;;2.95;0.55;;;;;;;17.89;78.42;100150.84;4952765;28;20101;-72
2022/10/19 08:44:22;;;;;;;2.85;0.70;;;;;;;17.72;78.65;100200.00;4952380;28;20055;-73
2022/10/19 08:47:17;;;;;;;3.67;0.43;;;;;;;18.60;76.87;100251.22;4951222;28;20058;-73
2022/10/19 08:49:44;;;;;;;6.35;0.98;;;;;;;17.82;76.07;99991.63;4937340;28;20107;-73
2022/10/19 08:52:16;;;;;;;3.00;0.57;;;;;;;17.29;77.70;100119.84;4955084;28;20033;-73
2022/10/19 08:54:49;;;;;;;2.20;0.40;;;;;;;18.32;76.99;100393.09;4952338;28;20587;-72
2022/10/19 08:57:51;;;;;;;2.22;1.05;;;;;;;18.64;75.41;100330.81;4955125;28;20035;-73
2022/10/19 09:00:32;;;;;;;2.20;0.90;;;;;;;19.20;74.46;100397.38;4956027;28;20031;-73
2022/10/19 09:03:36;;;;;;;2.03;0.70;;;;;;;18.44;73.35;100058.06;4951985;28;20054;-73
2022/10/19 09:06:22;;;;;;;2.08;0.60;;;;;;;17.17;74.41;99881.59;4951871;28;20048;-72
2022/10/19 09:08:50;;;;;;;3.97;0.88;;;;;;;17.02;76.59;100164.25;4954118;28;20126;-72
2022/10/19 09:11:22;;;;;;;2.72;0.70;;;;;;;16.54;78.92;100345.31;4952662;28;20027;-74
2022/10/19 09:13:49;;;;;;;3.20;0.77;;;;;;;16.63;80.87;100659.38;4952209;28;20054;-73
2022/10/19 09:16:18;;;;;;;2.67;0.68;;;;;;;18.11;77.62;100729.31;4952817;28;20014;-73
2022/10/19 09:18:45;;;;;;;4.13;1.17;;;;;;;18.02;74.26;100220.06;4954762;28;20039;-73
2022/10/19 09:21:19;;;;;;;2.47;0.70;;;;;;;16.65;76.01;100096.72;4953631;28;20022;-74
2022/10/19 09:23:57;;;;;;;7.05;0.90;;;;;;;16.28;78.32;100351.59;4954649;28;20042;-73
2022/10/19 09:26:27;;;;;;;4.05;0.85;;;;;;;15.52;80.25;100364.38;4957302;28;20043;-71
2022/10/19 09:29:05;;;;;;;5.10;0.70;;;;;;;16.45;80.70;100782.03;4956579;28;20109;-73
2022/10/19 09:31:35;;;;;;;2.88;0.50;;;;;;;17.54;79.25;100876.63;4955562;28;20118;-72
2022/10/19 09:34:05;;;;;;;1.20;0.60;;;;;;;17.58;75.20;100402.75;4959056;28;20019;-73
2022/10/19 09:36:56;;;;;;;4.40;0.82;;;;;;;17.71;75.37;100552.00;4955473;28;20327;-73
2022/10/19 09:39:22;;;;;;;3.72;0.75;;;;;;;18.10;73.91;100520.47;4961315;28;20049;-73
2022/10/19 09:41:55;;;;;;;3.45;0.60;;;;;;;18.07;73.44;100436.31;4955426;28;20031;-73
2022/10/19 09:44:25;;;;;;;3.17;0.50;;;;;;;17.77;72.19;100195.78;4955680;28;20498;-73
2022/10/19 09:47:02;;;;;;;2.05;0.50;;;;;;;18.13;71.83;100320.09;4955648;28;20061;-73
2022/10/19 09:49:45;;;;;;;2.80;0.35;;;;;;;18.25;69.14;100078.91;4956039;28;20078;-72
2022/10/19 09:52:32;;;;;;;0.88;0.40;;;;;;;18.38;68.90;100105.75;4942194;28;20102;-74
2022/10/19 09:55:01;;;;;;;1.23;0.30;;;;;;;18.14;67.12;99791.47;4954637;28;20082;-73
2022/10/19 09:57:27;;;;;;;3.45;0.45;;;;;;;18.04;68.87;100077.53;4957291;28;20033;-72
2022/10/19 09:59:52;;;;;;;0.80;0.30;;;;;;;18.06;68.82;100083.53;4955074;28;20038;-72
2022/10/19 10:02:21;;;;;;;3.40;0.50;;;;;;;17.85;66.16;99645.56;4955829;28;20114;-74
2022/10/19 10:04:56;;;;;;;0.85;0.30;;;;;;;18.21;63.94;99613.06;4957587;28;20039;-74
2022/10/19 10:07:26;;;;;;;1.45;0.30;;;;;;;18.59;62.41;99560.25;4957700;28;20351;-74
2022/10/19 10:09:51;;;;;;;0.80;0.35;;;;;;;18.98;60.41;99413.28;4956107;28;20086;-74
2022/10/19 10:12:17;;;;;;;1.73;0.43;;;;;;;18.74;60.25;99314.50;4957528;28;20390;-72
2022/10/19 10:14:43;;;;;;;0.53;0.23;;;;;;;18.88;59.77;99348.25;4954731;28;20039;-73
2022/10/19 10:17:19;;;;;;;0.35;0.35;;;;;;;18.60;59.04;99183.53;4975791;28;20030;-74
2022/10/19 10:19:51;;;;;;;;;;;;;;;19.12;58.72;99421.03;4955748;28;20484;-74
2022/10/19 10:22:31;;;;;;;1.85;0.45;;;;;;;19.21;57.94;99348.38;4957931;28;20013;-74
2022/10/19 10:24:57;;;;;;;3.97;1.20;;;;;;;18.71;57.95;99215.00;4954149;28;20039;-72
2022/10/19 10:27:35;;;;;;;1.93;0.53;;;;;;;19.20;56.78;99185.25;4956160;28;20469;-73
2022/10/19 10:30:06;;;;;;;1.75;0.30;;;;;;;18.27;54.80;98528.94;4969996;28;20282;-74
2022/10/19 10:32:38;;;;;;;1.40;0.22;;;;;;;17.90;55.00;98540.69;4954564;28;20041;-72
2022/10/19 10:35:06;;;;;;;0.22;0.22;;;;;;;17.18;58.29;98939.31;4942662;28;20043;-74
2022/10/19 10:37:43;;;;;;;2.38;0.88;;;;;;;18.12;57.42;99245.31;4954898;28;20039;-72
2022/10/19 10:40:21;;;;;;;0.60;0.20;;;;;;;17.65;54.85;98571.03;4957482;28;20031;-74
2022/10/19 10:42:48;;;;;;;0.93;0.30;;;;;;;18.16;55.14;98919.66;4941057;28;20040;-72
2022/10/19 10:45:29;;;;;;;1.65;0.20;;;;;;;18.15;53.17;98596.69;4953363;28;20444;-74
2022/10/19 10:47:55;;;;;;;2.53;0.40;;;;;;;18.66;54.57;99128.44;4955452;28;20075;-74
2022/10/19 10:50:24;;;;;;;0.82;0.22;;;;;;;19.03;53.89;99157.47;4954896;28;20066;-74
2022/10/19 10:53:26;;;;;;;0.98;0.20;;;;;;;19.09;53.09;99013.91;4953108;28;20477;-74
2022/10/19 10:55:55;;;;;;;6.32;0.30;;;;;;;19.52;53.62;99290.78;4940603;28;20511;-72
2022/10/19 10:58:42;;;;;;;1.38;0.60;;;;;;;18.89;52.33;98740.69;4954258;28;20022;-74
2022/10/19 11:01:17;;;;;;;1.95;0.30;;;;;;;19.65;51.80;99070.25;4971243;28;20039;-73
2022/10/19 11:03:50;;;;;;;1.05;0.30;;;;;;;19.90;51.74;99186.06;4952165;28;20074;-72
2022/10/19 11:06:17;;;;;;;1.35;0.30;;;;;;;19.60;51.74;98986.34;4944668;28;20342;-73
2022/10/19 11:08:55;;;;;;;2.42;0.70;;;;;;;20.18;51.28;99186.72;4955525;28;20033;-73
2022/10/19 11:11:35;;;;;;;0.47;0.30;;;;;;;20.00;50.53;98982.16;4957129;28;20088;-74
2022/10/19 11:14:28;;;;;;;0.75;0.50;;;;;;;18.00;50.20;97978.41;4954755;28;20042;-74
2022/10/19 11:16:56;;;;;;;1.17;0.40;;;;;;;18.97;53.20;99218.81;4946775;28;20062;-74
2022/10/19 11:19:26;;;;;;;0.30;0.30;;;;;;;19.87;51.40;99330.09;4955136;28;20192;-73
2022/10/19 11:22:08;;;;;;;6.43;0.47;;;;;;;19.70;51.15;99135.28;4954375;28;20105;-73
2022/10/19 11:24:45;;;;;;;1.50;0.50;;;;;;;19.79;51.19;99195.19;4951479;28;20046;-74
2022/10/19 11:27:32;;;;;;;2.42;0.40;;;;;;;19.81;49.75;98906.84;4940574;28;20075;-73
2022/10/19 11:30:00;;;;;;;1.10;0.75;;;;;;;20.66;50.24;99424.22;4942020;28;20492;-74
2022/10/19 11:32:57;;;;;;;1.45;0.85;;;;;;;20.48;50.40;99367.66;4952768;28;20103;-73